sensor_id;sensor_type;location;lat;lon;timestamp;P1;durP1;ratioP1;P2;durP2;ratioP2
3733;SDS011;1882;52.256;8.874;2022-09-29T00:00:37;49.33;;;21.67;;
3733;SDS011;1882;52.256;8.874;2022-09-29T00:03:21;46.50;;;22.37;;
3733;SDS011;1882;52.256;8.874;2022-09-29T00:08:59;45.90;;;22.47;;
3733;SDS011;1882;52.256;8.874;2022-09-29T00:15:11;46.87;;;21.13;;
3733;SDS011;1882;52.256;8.874;2022-09-29T00:18:08;40.97;;;21.47;;
3733;SDS011;1882;52.256;8.874;2022-09-29T00:20:54;45.97;;;22.17;;
3733;SDS011;1882;52.256;8.874;2022-09-29T00:23:53;41.23;;;20.90;;
3733;SDS011;1882;52.256;8.874;2022-09-29T00:26:27;39.17;;;21.30;;
3733;SDS011;1882;52.256;8.874;2022-09-29T00:28:57;47.70;;;21.27;;
3733;SDS011;1882;52.256;8.874;2022-09-29T00:31:27;36.57;;;19.73;;
3733;SDS011;1882;52.256;8.874;2022-09-29T00:34:15;45.47;;;21.40;;
3733;SDS011;1882;52.256;8.874;2022-09-29T00:36:43;50.37;;;22.27;;
3733;SDS011;1882;52.256;8.874;2022-09-29T00:39:36;39.60;;;20.70;;
3733;SDS011;1882;52.256;8.874;2022-09-29T00:42:29;41.30;;;20.30;;
3733;SDS011;1882;52.256;8.874;2022-09-29T00:47:42;43.73;;;22.20;;
3733;SDS011;1882;52.256;8.874;2022-09-29T00:50:52;44.17;;;20.30;;
3733;SDS011;1882;52.256;8.874;2022-09-29T00:53:28;40.17;;;21.37;;
3733;SDS011;1882;52.256;8.874;2022-09-29T00:56:13;41.70;;;21.00;;
3733;SDS011;1882;52.256;8.874;2022-09-29T00:59:02;41.53;;;21.43;;
3733;SDS011;1882;52.256;8.874;2022-09-29T01:01:38;40.17;;;22.33;;
3733;SDS011;1882;52.256;8.874;2022-09-29T01:04:11;42.60;;;22.27;;
3733;SDS011;1882;52.256;8.874;2022-09-29T01:06:54;37.27;;;19.97;;
3733;SDS011;1882;52.256;8.874;2022-09-29T01:13:08;40.33;;;19.50;;
3733;SDS011;1882;52.256;8.874;2022-09-29T01:16:00;36.70;;;20.53;;
3733;SDS011;1882;52.256;8.874;2022-09-29T01:18:30;38.83;;;19.27;;
3733;SDS011;1882;52.256;8.874;2022-09-29T01:30:45;39.53;;;20.23;;
3733;SDS011;1882;52.256;8.874;2022-09-29T01:33:52;39.10;;;19.73;;
3733;SDS011;1882;52.256;8.874;2022-09-29T01:44:49;42.90;;;20.80;;
3733;SDS011;1882;52.256;8.874;2022-09-29T01:47:42;37.80;;;20.07;;
3733;SDS011;1882;52.256;8.874;2022-09-29T01:50:34;38.10;;;21.80;;
3733;SDS011;1882;52.256;8.874;2022-09-29T01:53:19;42.90;;;21.33;;
3733;SDS011;1882;52.256;8.874;2022-09-29T01:56:01;35.60;;;20.50;;
3733;SDS011;1882;52.256;8.874;2022-09-29T02:02:20;39.87;;;22.03;;
3733;SDS011;1882;52.256;8.874;2022-09-29T02:11:53;40.13;;;21.17;;
3733;SDS011;1882;52.256;8.874;2022-09-29T02:14:28;38.27;;;21.17;;
3733;SDS011;1882;52.256;8.874;2022-09-29T02:17:13;38.80;;;20.10;;
3733;SDS011;1882;52.256;8.874;2022-09-29T02:19:51;40.83;;;20.53;;
3733;SDS011;1882;52.256;8.874;2022-09-29T02:22:31;42.17;;;22.37;;
3733;SDS011;1882;52.256;8.874;2022-09-29T02:25:02;42.57;;;23.27;;
3733;SDS011;1882;52.256;8.874;2022-09-29T02:27:32;42.20;;;22.80;;
3733;SDS011;1882;52.256;8.874;2022-09-29T02:30:09;40.77;;;21.57;;
3733;SDS011;1882;52.256;8.874;2022-09-29T02:32:50;49.33;;;23.80;;
3733;SDS011;1882;52.256;8.874;2022-09-29T02:35:49;52.73;;;25.80;;
3733;SDS011;1882;52.256;8.874;2022-09-29T02:38:42;52.83;;;24.93;;
3733;SDS011;1882;52.256;8.874;2022-09-29T02:41:33;48.80;;;26.07;;
3733;SDS011;1882;52.256;8.874;2022-09-29T02:55:43;44.30;;;24.30;;
3733;SDS011;1882;52.256;8.874;2022-09-29T03:01:14;41.53;;;23.03;;
3733;SDS011;1882;52.256;8.874;2022-09-29T03:03:49;42.70;;;23.90;;
3733;SDS011;1882;52.256;8.874;2022-09-29T03:06:48;47.70;;;24.40;;
3733;SDS011;1882;52.256;8.874;2022-09-29T03:09:26;42.50;;;23.77;;
3733;SDS011;1882;52.256;8.874;2022-09-29T03:11:56;43.87;;;23.10;;
3733;SDS011;1882;52.256;8.874;2022-09-29T03:14:23;46.70;;;23.03;;
3733;SDS011;1882;52.256;8.874;2022-09-29T03:16:55;45.40;;;24.17;;
3733;SDS011;1882;52.256;8.874;2022-09-29T03:19:25;39.70;;;22.77;;
3733;SDS011;1882;52.256;8.874;2022-09-29T03:21:57;34.60;;;20.30;;
3733;SDS011;1882;52.256;8.874;2022-09-29T03:24:32;39.03;;;21.37;;
3733;SDS011;1882;52.256;8.874;2022-09-29T03:27:01;40.07;;;22.27;;
3733;SDS011;1882;52.256;8.874;2022-09-29T03:29:50;37.60;;;21.63;;
3733;SDS011;1882;52.256;8.874;2022-09-29T03:32:19;40.30;;;23.50;;
3733;SDS011;1882;52.256;8.874;2022-09-29T03:34:51;39.73;;;21.93;;
3733;SDS011;1882;52.256;8.874;2022-09-29T03:37:24;39.07;;;21.27;;
3733;SDS011;1882;52.256;8.874;2022-09-29T03:39:56;37.67;;;22.10;;
3733;SDS011;1882;52.256;8.874;2022-09-29T03:42:32;39.30;;;21.90;;
3733;SDS011;1882;52.256;8.874;2022-09-29T03:45:03;40.20;;;22.53;;
3733;SDS011;1882;52.256;8.874;2022-09-29T03:47:41;40.97;;;23.20;;
3733;SDS011;1882;52.256;8.874;2022-09-29T03:50:25;38.97;;;23.33;;
3733;SDS011;1882;52.256;8.874;2022-09-29T03:52:52;39.47;;;22.07;;
3733;SDS011;1882;52.256;8.874;2022-09-29T03:55:54;39.10;;;21.60;;
3733;SDS011;1882;52.256;8.874;2022-09-29T03:58:21;41.10;;;21.40;;
3733;SDS011;1882;52.256;8.874;2022-09-29T04:00:50;43.67;;;23.60;;
3733;SDS011;1882;52.256;8.874;2022-09-29T04:03:49;40.47;;;22.37;;
3733;SDS011;1882;52.256;8.874;2022-09-29T04:06:23;45.67;;;23.07;;
3733;SDS011;1882;52.256;8.874;2022-09-29T04:08:56;42.00;;;22.67;;
3733;SDS011;1882;52.256;8.874;2022-09-29T04:11:23;45.53;;;23.87;;
3733;SDS011;1882;52.256;8.874;2022-09-29T04:14:01;45.30;;;24.27;;
3733;SDS011;1882;52.256;8.874;2022-09-29T04:16:39;45.37;;;24.80;;
3733;SDS011;1882;52.256;8.874;2022-09-29T04:19:09;51.33;;;25.03;;
3733;SDS011;1882;52.256;8.874;2022-09-29T04:21:39;45.60;;;24.23;;
3733;SDS011;1882;52.256;8.874;2022-09-29T04:24:20;43.03;;;23.77;;
3733;SDS011;1882;52.256;8.874;2022-09-29T04:27:06;46.30;;;24.20;;
3733;SDS011;1882;52.256;8.874;2022-09-29T04:30:00;45.33;;;23.27;;
3733;SDS011;1882;52.256;8.874;2022-09-29T04:32:36;53.20;;;24.67;;
3733;SDS011;1882;52.256;8.874;2022-09-29T04:35:03;42.43;;;22.97;;
3733;SDS011;1882;52.256;8.874;2022-09-29T04:37:30;47.97;;;25.27;;
3733;SDS011;1882;52.256;8.874;2022-09-29T04:39:57;51.53;;;25.30;;
3733;SDS011;1882;52.256;8.874;2022-09-29T04:42:24;48.40;;;23.30;;
3733;SDS011;1882;52.256;8.874;2022-09-29T04:45:06;44.83;;;23.63;;
3733;SDS011;1882;52.256;8.874;2022-09-29T04:47:51;48.10;;;23.60;;
3733;SDS011;1882;52.256;8.874;2022-09-29T04:50:43;50.03;;;24.13;;
3733;SDS011;1882;52.256;8.874;2022-09-29T04:53:45;47.77;;;25.10;;
3733;SDS011;1882;52.256;8.874;2022-09-29T04:56:46;51.60;;;24.03;;
3733;SDS011;1882;52.256;8.874;2022-09-29T04:59:30;51.93;;;25.00;;
3733;SDS011;1882;52.256;8.874;2022-09-29T05:02:17;45.30;;;23.10;;
3733;SDS011;1882;52.256;8.874;2022-09-29T05:04:45;60.43;;;24.13;;
3733;SDS011;1882;52.256;8.874;2022-09-29T05:11:43;49.47;;;24.17;;
3733;SDS011;1882;52.256;8.874;2022-09-29T05:14:10;55.67;;;24.60;;
3733;SDS011;1882;52.256;8.874;2022-09-29T05:16:41;51.40;;;24.27;;
3733;SDS011;1882;52.256;8.874;2022-09-29T05:19:18;52.30;;;24.63;;
3733;SDS011;1882;52.256;8.874;2022-09-29T05:22:42;43.83;;;22.40;;
3733;SDS011;1882;52.256;8.874;2022-09-29T05:25:09;48.43;;;22.90;;
3733;SDS011;1882;52.256;8.874;2022-09-29T05:28:10;55.93;;;24.73;;
3733;SDS011;1882;52.256;8.874;2022-09-29T05:30:39;51.53;;;23.37;;
3733;SDS011;1882;52.256;8.874;2022-09-29T05:33:22;47.90;;;22.83;;
3733;SDS011;1882;52.256;8.874;2022-09-29T05:36:42;50.63;;;22.27;;
3733;SDS011;1882;52.256;8.874;2022-09-29T05:39:09;49.40;;;23.30;;
3733;SDS011;1882;52.256;8.874;2022-09-29T05:42:32;50.77;;;23.13;;
3733;SDS011;1882;52.256;8.874;2022-09-29T05:45:58;52.00;;;23.23;;
3733;SDS011;1882;52.256;8.874;2022-09-29T05:48:46;56.10;;;24.30;;
3733;SDS011;1882;52.256;8.874;2022-09-29T05:55:35;47.30;;;22.53;;
3733;SDS011;1882;52.256;8.874;2022-09-29T05:58:14;41.37;;;20.93;;
3733;SDS011;1882;52.256;8.874;2022-09-29T06:01:03;38.13;;;19.47;;
3733;SDS011;1882;52.256;8.874;2022-09-29T06:03:42;39.50;;;20.77;;
3733;SDS011;1882;52.256;8.874;2022-09-29T06:06:50;41.10;;;20.83;;
3733;SDS011;1882;52.256;8.874;2022-09-29T06:09:32;39.17;;;20.83;;
3733;SDS011;1882;52.256;8.874;2022-09-29T06:19:51;34.07;;;18.40;;
3733;SDS011;1882;52.256;8.874;2022-09-29T06:31:20;33.73;;;18.23;;
3733;SDS011;1882;52.256;8.874;2022-09-29T06:38:33;29.03;;;16.53;;
3733;SDS011;1882;52.256;8.874;2022-09-29T06:41:02;28.60;;;16.33;;
3733;SDS011;1882;52.256;8.874;2022-09-29T06:47:11;32.17;;;17.07;;
3733;SDS011;1882;52.256;8.874;2022-09-29T06:49:50;27.53;;;16.47;;
3733;SDS011;1882;52.256;8.874;2022-09-29T06:52:32;29.13;;;16.13;;
3733;SDS011;1882;52.256;8.874;2022-09-29T06:55:22;25.23;;;15.20;;
3733;SDS011;1882;52.256;8.874;2022-09-29T06:58:32;29.60;;;16.30;;
3733;SDS011;1882;52.256;8.874;2022-09-29T07:01:16;28.70;;;16.10;;
3733;SDS011;1882;52.256;8.874;2022-09-29T07:04:00;26.73;;;16.00;;
3733;SDS011;1882;52.256;8.874;2022-09-29T07:06:32;28.73;;;15.80;;
3733;SDS011;1882;52.256;8.874;2022-09-29T07:09:03;25.07;;;15.73;;
3733;SDS011;1882;52.256;8.874;2022-09-29T07:11:58;28.03;;;16.30;;
3733;SDS011;1882;52.256;8.874;2022-09-29T07:15:12;27.70;;;15.20;;
3733;SDS011;1882;52.256;8.874;2022-09-29T07:18:12;26.23;;;14.13;;
3733;SDS011;1882;52.256;8.874;2022-09-29T07:20:48;25.63;;;14.87;;
3733;SDS011;1882;52.256;8.874;2022-09-29T07:23:20;25.13;;;15.43;;
3733;SDS011;1882;52.256;8.874;2022-09-29T07:25:47;23.40;;;14.80;;
3733;SDS011;1882;52.256;8.874;2022-09-29T07:28:40;22.70;;;13.77;;
3733;SDS011;1882;52.256;8.874;2022-09-29T07:31:11;24.07;;;13.50;;
3733;SDS011;1882;52.256;8.874;2022-09-29T07:34:23;25.23;;;13.33;;
3733;SDS011;1882;52.256;8.874;2022-09-29T07:37:26;21.47;;;13.17;;
3733;SDS011;1882;52.256;8.874;2022-09-29T07:40:32;24.10;;;14.27;;
3733;SDS011;1882;52.256;8.874;2022-09-29T07:43:29;21.50;;;14.17;;
3733;SDS011;1882;52.256;8.874;2022-09-29T07:46:33;22.97;;;13.67;;
3733;SDS011;1882;52.256;8.874;2022-09-29T07:49:42;22.77;;;14.27;;
3733;SDS011;1882;52.256;8.874;2022-09-29T07:52:24;21.97;;;13.97;;
3733;SDS011;1882;52.256;8.874;2022-09-29T07:55:08;23.37;;;14.10;;
3733;SDS011;1882;52.256;8.874;2022-09-29T07:57:43;28.53;;;14.80;;
3733;SDS011;1882;52.256;8.874;2022-09-29T08:00:36;23.57;;;14.23;;
3733;SDS011;1882;52.256;8.874;2022-09-29T08:03:06;25.23;;;15.00;;
3733;SDS011;1882;52.256;8.874;2022-09-29T08:05:41;27.13;;;14.93;;
3733;SDS011;1882;52.256;8.874;2022-09-29T08:08:27;29.43;;;15.97;;
3733;SDS011;1882;52.256;8.874;2022-09-29T08:11:10;24.27;;;14.73;;
3733;SDS011;1882;52.256;8.874;2022-09-29T08:13:55;24.40;;;14.83;;
3733;SDS011;1882;52.256;8.874;2022-09-29T08:16:34;29.97;;;17.30;;
3733;SDS011;1882;52.256;8.874;2022-09-29T08:37:51;30.50;;;15.67;;
3733;SDS011;1882;52.256;8.874;2022-09-29T08:40:48;27.93;;;15.07;;
3733;SDS011;1882;52.256;8.874;2022-09-29T08:43:22;27.43;;;15.63;;
3733;SDS011;1882;52.256;8.874;2022-09-29T08:48:35;28.33;;;15.50;;
3733;SDS011;1882;52.256;8.874;2022-09-29T08:51:24;28.17;;;16.60;;
3733;SDS011;1882;52.256;8.874;2022-09-29T08:54:15;26.63;;;16.20;;
3733;SDS011;1882;52.256;8.874;2022-09-29T08:57:03;30.90;;;16.27;;
3733;SDS011;1882;52.256;8.874;2022-09-29T08:59:31;26.87;;;16.40;;
3733;SDS011;1882;52.256;8.874;2022-09-29T09:04:53;29.10;;;16.20;;
3733;SDS011;1882;52.256;8.874;2022-09-29T09:07:38;28.93;;;17.20;;
3733;SDS011;1882;52.256;8.874;2022-09-29T09:10:20;31.80;;;18.13;;
3733;SDS011;1882;52.256;8.874;2022-09-29T09:21:03;27.37;;;15.93;;
3733;SDS011;1882;52.256;8.874;2022-09-29T09:23:38;38.30;;;18.13;;
3733;SDS011;1882;52.256;8.874;2022-09-29T09:28:57;29.20;;;16.80;;
3733;SDS011;1882;52.256;8.874;2022-09-29T09:34:06;29.20;;;16.63;;
3733;SDS011;1882;52.256;8.874;2022-09-29T09:36:54;29.03;;;17.17;;
3733;SDS011;1882;52.256;8.874;2022-09-29T09:39:39;28.93;;;16.33;;
3733;SDS011;1882;52.256;8.874;2022-09-29T09:42:17;29.23;;;15.93;;
3733;SDS011;1882;52.256;8.874;2022-09-29T09:44:48;27.03;;;15.33;;
3733;SDS011;1882;52.256;8.874;2022-09-29T09:47:28;25.67;;;15.70;;
3733;SDS011;1882;52.256;8.874;2022-09-29T09:50:17;28.27;;;14.70;;
3733;SDS011;1882;52.256;8.874;2022-09-29T09:52:53;24.33;;;14.10;;
3733;SDS011;1882;52.256;8.874;2022-09-29T09:55:26;24.60;;;14.10;;
3733;SDS011;1882;52.256;8.874;2022-09-29T10:00:25;24.80;;;13.00;;
3733;SDS011;1882;52.256;8.874;2022-09-29T10:03:00;18.53;;;12.47;;
3733;SDS011;1882;52.256;8.874;2022-09-29T10:08:38;23.47;;;13.33;;
3733;SDS011;1882;52.256;8.874;2022-09-29T10:11:12;28.33;;;13.03;;
3733;SDS011;1882;52.256;8.874;2022-09-29T10:14:01;19.80;;;12.00;;
3733;SDS011;1882;52.256;8.874;2022-09-29T10:16:32;16.33;;;10.10;;
3733;SDS011;1882;52.256;8.874;2022-09-29T10:19:01;17.67;;;11.43;;
3733;SDS011;1882;52.256;8.874;2022-09-29T10:21:41;24.23;;;10.77;;
3733;SDS011;1882;52.256;8.874;2022-09-29T10:24:27;15.83;;;10.30;;
3733;SDS011;1882;52.256;8.874;2022-09-29T10:27:18;18.07;;;11.00;;
3733;SDS011;1882;52.256;8.874;2022-09-29T10:29:56;15.70;;;9.80;;
3733;SDS011;1882;52.256;8.874;2022-09-29T10:32:28;17.43;;;10.83;;
3733;SDS011;1882;52.256;8.874;2022-09-29T10:35:04;18.23;;;10.97;;
3733;SDS011;1882;52.256;8.874;2022-09-29T10:37:41;17.50;;;10.57;;
3733;SDS011;1882;52.256;8.874;2022-09-29T10:42:43;11.63;;;8.40;;
3733;SDS011;1882;52.256;8.874;2022-09-29T10:45:34;13.17;;;8.40;;
3733;SDS011;1882;52.256;8.874;2022-09-29T10:48:29;9.30;;;6.60;;
3733;SDS011;1882;52.256;8.874;2022-09-29T10:51:02;17.30;;;8.77;;
3733;SDS011;1882;52.256;8.874;2022-09-29T10:53:37;18.40;;;9.43;;
3733;SDS011;1882;52.256;8.874;2022-09-29T10:56:35;14.97;;;9.50;;
3733;SDS011;1882;52.256;8.874;2022-09-29T10:59:48;18.60;;;10.40;;
3733;SDS011;1882;52.256;8.874;2022-09-29T11:05:57;12.33;;;7.70;;
3733;SDS011;1882;52.256;8.874;2022-09-29T11:08:31;10.97;;;7.33;;
3733;SDS011;1882;52.256;8.874;2022-09-29T11:11:18;14.00;;;7.97;;
3733;SDS011;1882;52.256;8.874;2022-09-29T11:13:57;8.80;;;6.37;;
3733;SDS011;1882;52.256;8.874;2022-09-29T11:19:08;10.30;;;6.73;;
3733;SDS011;1882;52.256;8.874;2022-09-29T11:21:51;15.53;;;9.60;;
3733;SDS011;1882;52.256;8.874;2022-09-29T11:34:46;11.30;;;8.07;;
3733;SDS011;1882;52.256;8.874;2022-09-29T11:37:43;10.83;;;7.30;;
3733;SDS011;1882;52.256;8.874;2022-09-29T11:40:16;11.40;;;8.37;;
3733;SDS011;1882;52.256;8.874;2022-09-29T11:43:04;13.07;;;8.43;;
3733;SDS011;1882;52.256;8.874;2022-09-29T11:45:36;13.20;;;8.57;;
3733;SDS011;1882;52.256;8.874;2022-09-29T11:51:12;8.27;;;6.00;;
3733;SDS011;1882;52.256;8.874;2022-09-29T11:57:02;14.47;;;6.80;;
3733;SDS011;1882;52.256;8.874;2022-09-29T13:02:01;4.80;;;3.17;;
3733;SDS011;1882;52.256;8.874;2022-09-29T13:24:45;3.73;;;3.33;;
3733;SDS011;1882;52.256;8.874;2022-09-29T13:29:57;5.17;;;3.40;;
3733;SDS011;1882;52.256;8.874;2022-09-29T13:35:22;2.97;;;2.67;;
3733;SDS011;1882;52.256;8.874;2022-09-29T13:38:12;3.40;;;3.10;;
3733;SDS011;1882;52.256;8.874;2022-09-29T13:51:53;2.40;;;2.20;;
3733;SDS011;1882;52.256;8.874;2022-09-29T13:59:27;2.27;;;2.00;;
3733;SDS011;1882;52.256;8.874;2022-09-29T14:02:16;2.97;;;2.07;;
3733;SDS011;1882;52.256;8.874;2022-09-29T14:10:26;3.17;;;2.10;;
3733;SDS011;1882;52.256;8.874;2022-09-29T14:13:16;3.33;;;1.87;;
3733;SDS011;1882;52.256;8.874;2022-09-29T14:15:50;3.77;;;2.10;;
3733;SDS011;1882;52.256;8.874;2022-09-29T14:18:29;2.20;;;2.00;;
3733;SDS011;1882;52.256;8.874;2022-09-29T14:21:03;3.97;;;2.80;;
3733;SDS011;1882;52.256;8.874;2022-09-29T14:29:17;3.33;;;2.00;;
3733;SDS011;1882;52.256;8.874;2022-09-29T14:31:47;3.90;;;2.70;;
3733;SDS011;1882;52.256;8.874;2022-09-29T14:34:35;3.33;;;1.90;;
3733;SDS011;1882;52.256;8.874;2022-09-29T14:37:02;2.47;;;2.27;;
3733;SDS011;1882;52.256;8.874;2022-09-29T14:39:37;2.47;;;1.90;;
3733;SDS011;1882;52.256;8.874;2022-09-29T14:42:04;3.27;;;2.33;;
3733;SDS011;1882;52.256;8.874;2022-09-29T14:44:47;2.90;;;2.10;;
3733;SDS011;1882;52.256;8.874;2022-09-29T14:47:36;4.07;;;2.17;;
3733;SDS011;1882;52.256;8.874;2022-09-29T14:50:48;6.40;;;2.20;;
3733;SDS011;1882;52.256;8.874;2022-09-29T14:53:50;4.30;;;2.60;;
3733;SDS011;1882;52.256;8.874;2022-09-29T14:56:46;3.20;;;2.00;;
3733;SDS011;1882;52.256;8.874;2022-09-29T15:02:32;3.17;;;2.40;;
3733;SDS011;1882;52.256;8.874;2022-09-29T15:05:14;2.30;;;2.00;;
3733;SDS011;1882;52.256;8.874;2022-09-29T15:08:18;1.93;;;1.80;;
3733;SDS011;1882;52.256;8.874;2022-09-29T15:10:50;2.00;;;1.90;;
3733;SDS011;1882;52.256;8.874;2022-09-29T15:13:27;2.97;;;1.93;;
3733;SDS011;1882;52.256;8.874;2022-09-29T15:16:26;2.00;;;1.87;;
3733;SDS011;1882;52.256;8.874;2022-09-29T15:19:28;1.80;;;1.70;;
3733;SDS011;1882;52.256;8.874;2022-09-29T15:27:52;2.33;;;2.13;;
3733;SDS011;1882;52.256;8.874;2022-09-29T15:30:20;5.50;;;2.17;;
3733;SDS011;1882;52.256;8.874;2022-09-29T15:32:51;2.40;;;2.20;;
3733;SDS011;1882;52.256;8.874;2022-09-29T15:35:20;3.40;;;2.50;;
3733;SDS011;1882;52.256;8.874;2022-09-29T15:40:23;3.83;;;2.40;;
3733;SDS011;1882;52.256;8.874;2022-09-29T15:42:51;3.40;;;2.87;;
3733;SDS011;1882;52.256;8.874;2022-09-29T15:45:37;2.73;;;2.40;;
3733;SDS011;1882;52.256;8.874;2022-09-29T15:48:09;3.77;;;2.57;;
3733;SDS011;1882;52.256;8.874;2022-09-29T15:50:41;4.67;;;2.43;;
3733;SDS011;1882;52.256;8.874;2022-09-29T15:53:09;4.20;;;2.80;;
3733;SDS011;1882;52.256;8.874;2022-09-29T15:55:36;3.43;;;2.60;;
3733;SDS011;1882;52.256;8.874;2022-09-29T15:58:33;2.90;;;2.70;;
3733;SDS011;1882;52.256;8.874;2022-09-29T16:00:57;3.73;;;2.90;;
3733;SDS011;1882;52.256;8.874;2022-09-29T16:03:42;7.63;;;2.90;;
3733;SDS011;1882;52.256;8.874;2022-09-29T16:06:28;3.03;;;2.70;;
3733;SDS011;1882;52.256;8.874;2022-09-29T16:09:05;3.53;;;2.90;;
3733;SDS011;1882;52.256;8.874;2022-09-29T16:11:48;3.27;;;2.80;;
3733;SDS011;1882;52.256;8.874;2022-09-29T16:14:21;6.53;;;3.20;;
3733;SDS011;1882;52.256;8.874;2022-09-29T16:16:50;3.13;;;2.70;;
3733;SDS011;1882;52.256;8.874;2022-09-29T16:19:25;6.87;;;3.10;;
3733;SDS011;1882;52.256;8.874;2022-09-29T16:21:57;4.13;;;3.20;;
3733;SDS011;1882;52.256;8.874;2022-09-29T16:24:33;4.33;;;2.90;;
3733;SDS011;1882;52.256;8.874;2022-09-29T16:27:35;4.63;;;3.30;;
3733;SDS011;1882;52.256;8.874;2022-09-29T16:30:18;4.97;;;3.23;;
3733;SDS011;1882;52.256;8.874;2022-09-29T16:32:53;7.37;;;3.63;;
3733;SDS011;1882;52.256;8.874;2022-09-29T16:35:41;4.20;;;3.50;;
3733;SDS011;1882;52.256;8.874;2022-09-29T16:38:31;3.60;;;3.30;;
3733;SDS011;1882;52.256;8.874;2022-09-29T16:41:24;3.70;;;3.20;;
3733;SDS011;1882;52.256;8.874;2022-09-29T16:44:16;6.87;;;3.60;;
3733;SDS011;1882;52.256;8.874;2022-09-29T16:49:31;6.10;;;3.80;;
3733;SDS011;1882;52.256;8.874;2022-09-29T16:52:10;5.00;;;3.43;;
3733;SDS011;1882;52.256;8.874;2022-09-29T16:54:44;6.53;;;4.00;;
3733;SDS011;1882;52.256;8.874;2022-09-29T16:57:34;6.00;;;4.80;;
3733;SDS011;1882;52.256;8.874;2022-09-29T17:00:08;4.20;;;3.80;;
3733;SDS011;1882;52.256;8.874;2022-09-29T17:02:37;5.37;;;3.83;;
3733;SDS011;1882;52.256;8.874;2022-09-29T17:05:06;6.73;;;3.43;;
3733;SDS011;1882;52.256;8.874;2022-09-29T17:07:38;5.73;;;3.97;;
3733;SDS011;1882;52.256;8.874;2022-09-29T17:10:17;7.83;;;3.80;;
3733;SDS011;1882;52.256;8.874;2022-09-29T17:12:45;6.00;;;3.50;;
3733;SDS011;1882;52.256;8.874;2022-09-29T17:15:12;4.70;;;3.10;;
3733;SDS011;1882;52.256;8.874;2022-09-29T17:17:39;4.93;;;3.47;;
3733;SDS011;1882;52.256;8.874;2022-09-29T17:20:10;3.80;;;3.00;;
3733;SDS011;1882;52.256;8.874;2022-09-29T17:22:39;3.33;;;3.03;;
3733;SDS011;1882;52.256;8.874;2022-09-29T17:25:06;5.50;;;3.23;;
3733;SDS011;1882;52.256;8.874;2022-09-29T17:27:33;4.23;;;3.30;;
3733;SDS011;1882;52.256;8.874;2022-09-29T17:30:19;3.90;;;3.13;;
3733;SDS011;1882;52.256;8.874;2022-09-29T17:32:49;3.33;;;3.03;;
3733;SDS011;1882;52.256;8.874;2022-09-29T17:35:18;8.80;;;3.87;;
3733;SDS011;1882;52.256;8.874;2022-09-29T17:37:46;6.37;;;3.80;;
3733;SDS011;1882;52.256;8.874;2022-09-29T17:40:18;4.93;;;3.37;;
3733;SDS011;1882;52.256;8.874;2022-09-29T17:42:47;6.30;;;4.00;;
3733;SDS011;1882;52.256;8.874;2022-09-29T17:45:14;8.20;;;4.20;;
3733;SDS011;1882;52.256;8.874;2022-09-29T17:47:42;9.43;;;4.37;;
3733;SDS011;1882;52.256;8.874;2022-09-29T17:50:52;7.10;;;4.60;;
3733;SDS011;1882;52.256;8.874;2022-09-29T17:53:03;9.17;;;5.60;;
3733;SDS011;1882;52.256;8.874;2022-09-29T17:55:30;10.03;;;5.43;;
3733;SDS011;1882;52.256;8.874;2022-09-29T17:57:58;13.00;;;4.33;;
3733;SDS011;1882;52.256;8.874;2022-09-29T18:00:26;6.50;;;4.33;;
3733;SDS011;1882;52.256;8.874;2022-09-29T18:02:54;3.80;;;3.50;;
3733;SDS011;1882;52.256;8.874;2022-09-29T18:05:23;8.50;;;4.00;;
3733;SDS011;1882;52.256;8.874;2022-09-29T18:07:52;5.47;;;3.90;;
3733;SDS011;1882;52.256;8.874;2022-09-29T18:13:15;6.23;;;4.60;;
3733;SDS011;1882;52.256;8.874;2022-09-29T18:16:21;5.20;;;4.70;;
3733;SDS011;1882;52.256;8.874;2022-09-29T18:18:57;7.10;;;4.40;;
3733;SDS011;1882;52.256;8.874;2022-09-29T18:21:27;4.73;;;4.20;;
3733;SDS011;1882;52.256;8.874;2022-09-29T18:23:57;9.93;;;4.70;;
3733;SDS011;1882;52.256;8.874;2022-09-29T18:26:24;11.93;;;4.80;;
3733;SDS011;1882;52.256;8.874;2022-09-29T18:28:52;8.70;;;4.47;;
3733;SDS011;1882;52.256;8.874;2022-09-29T18:31:24;6.53;;;3.73;;
3733;SDS011;1882;52.256;8.874;2022-09-29T18:33:56;4.60;;;3.90;;
3733;SDS011;1882;52.256;8.874;2022-09-29T18:36:23;5.20;;;3.93;;
3733;SDS011;1882;52.256;8.874;2022-09-29T18:38:49;4.27;;;3.83;;
3733;SDS011;1882;52.256;8.874;2022-09-29T18:41:17;5.33;;;3.60;;
3733;SDS011;1882;52.256;8.874;2022-09-29T18:43:46;6.93;;;3.83;;
3733;SDS011;1882;52.256;8.874;2022-09-29T18:46:13;6.90;;;4.00;;
3733;SDS011;1882;52.256;8.874;2022-09-29T18:48:40;5.67;;;3.97;;
3733;SDS011;1882;52.256;8.874;2022-09-29T18:51:07;4.50;;;4.10;;
3733;SDS011;1882;52.256;8.874;2022-09-29T18:53:39;6.13;;;4.10;;
3733;SDS011;1882;52.256;8.874;2022-09-29T18:56:10;5.10;;;4.00;;
3733;SDS011;1882;52.256;8.874;2022-09-29T18:58:40;10.33;;;3.77;;
3733;SDS011;1882;52.256;8.874;2022-09-29T19:01:07;3.93;;;3.57;;
3733;SDS011;1882;52.256;8.874;2022-09-29T19:03:40;8.03;;;4.20;;
3733;SDS011;1882;52.256;8.874;2022-09-29T19:06:09;5.93;;;3.97;;
3733;SDS011;1882;52.256;8.874;2022-09-29T19:08:39;7.47;;;4.03;;
3733;SDS011;1882;52.256;8.874;2022-09-29T19:11:16;6.27;;;3.90;;
3733;SDS011;1882;52.256;8.874;2022-09-29T19:13:44;5.87;;;3.67;;
3733;SDS011;1882;52.256;8.874;2022-09-29T19:16:11;7.10;;;4.17;;
3733;SDS011;1882;52.256;8.874;2022-09-29T19:18:46;8.07;;;3.90;;
3733;SDS011;1882;52.256;8.874;2022-09-29T19:21:14;6.90;;;3.63;;
3733;SDS011;1882;52.256;8.874;2022-09-29T19:23:42;5.27;;;3.33;;
3733;SDS011;1882;52.256;8.874;2022-09-29T19:26:15;7.07;;;3.77;;
3733;SDS011;1882;52.256;8.874;2022-09-29T19:28:44;5.10;;;3.57;;
3733;SDS011;1882;52.256;8.874;2022-09-29T19:31:14;5.03;;;3.70;;
3733;SDS011;1882;52.256;8.874;2022-09-29T19:33:44;4.30;;;3.90;;
3733;SDS011;1882;52.256;8.874;2022-09-29T19:36:13;4.70;;;4.30;;
3733;SDS011;1882;52.256;8.874;2022-09-29T19:38:41;5.10;;;4.17;;
3733;SDS011;1882;52.256;8.874;2022-09-29T19:41:17;8.20;;;4.83;;
3733;SDS011;1882;52.256;8.874;2022-09-29T19:43:45;4.53;;;4.13;;
3733;SDS011;1882;52.256;8.874;2022-09-29T19:46:13;8.13;;;5.00;;
3733;SDS011;1882;52.256;8.874;2022-09-29T19:48:40;6.30;;;4.90;;
3733;SDS011;1882;52.256;8.874;2022-09-29T19:51:10;6.60;;;5.30;;
3733;SDS011;1882;52.256;8.874;2022-09-29T19:54:00;6.47;;;5.43;;
3733;SDS011;1882;52.256;8.874;2022-09-29T19:56:40;7.43;;;5.17;;
3733;SDS011;1882;52.256;8.874;2022-09-29T19:59:09;10.90;;;6.00;;
3733;SDS011;1882;52.256;8.874;2022-09-29T20:01:39;8.30;;;5.83;;
3733;SDS011;1882;52.256;8.874;2022-09-29T20:04:07;12.97;;;6.20;;
3733;SDS011;1882;52.256;8.874;2022-09-29T20:06:34;8.50;;;6.60;;
3733;SDS011;1882;52.256;8.874;2022-09-29T20:09:02;7.03;;;5.60;;
3733;SDS011;1882;52.256;8.874;2022-09-29T20:11:29;7.80;;;5.80;;
3733;SDS011;1882;52.256;8.874;2022-09-29T20:14:00;11.20;;;6.43;;
3733;SDS011;1882;52.256;8.874;2022-09-29T20:16:31;8.63;;;6.80;;
3733;SDS011;1882;52.256;8.874;2022-09-29T20:19:04;14.70;;;7.17;;
3733;SDS011;1882;52.256;8.874;2022-09-29T20:21:32;9.57;;;7.23;;
3733;SDS011;1882;52.256;8.874;2022-09-29T20:24:01;14.63;;;7.60;;
3733;SDS011;1882;52.256;8.874;2022-09-29T20:26:28;10.80;;;7.30;;
3733;SDS011;1882;52.256;8.874;2022-09-29T20:28:54;10.10;;;7.37;;
3733;SDS011;1882;52.256;8.874;2022-09-29T20:31:27;9.53;;;7.33;;
3733;SDS011;1882;52.256;8.874;2022-09-29T20:33:57;13.33;;;7.83;;
3733;SDS011;1882;52.256;8.874;2022-09-29T20:36:24;9.63;;;7.97;;
3733;SDS011;1882;52.256;8.874;2022-09-29T20:38:56;10.70;;;8.40;;
3733;SDS011;1882;52.256;8.874;2022-09-29T20:41:22;12.80;;;8.20;;
3733;SDS011;1882;52.256;8.874;2022-09-29T20:43:58;11.20;;;8.13;;
3733;SDS011;1882;52.256;8.874;2022-09-29T20:46:29;10.37;;;8.07;;
3733;SDS011;1882;52.256;8.874;2022-09-29T20:48:57;13.20;;;8.63;;
3733;SDS011;1882;52.256;8.874;2022-09-29T20:51:25;11.57;;;8.50;;
3733;SDS011;1882;52.256;8.874;2022-09-29T20:54:00;11.97;;;9.00;;
3733;SDS011;1882;52.256;8.874;2022-09-29T20:56:28;18.23;;;9.73;;
3733;SDS011;1882;52.256;8.874;2022-09-29T20:59:02;15.40;;;11.57;;